createdAt,value
2023-02-24T00:02:04.582Z,4.30
2023-02-24T00:04:35.803Z,4.28
2023-02-24T00:07:04.743Z,4.22
2023-02-24T00:09:33.643Z,4.19
2023-02-24T00:12:10.916Z,4.19
2023-02-24T00:14:42.577Z,4.20
2023-02-24T00:17:14.776Z,4.14
2023-02-24T00:19:43.620Z,4.14
2023-02-24T00:22:13.086Z,4.15
2023-02-24T00:24:41.071Z,4.15
2023-02-24T00:27:11.971Z,4.16
2023-02-24T00:29:42.161Z,4.14
2023-02-24T00:32:13.538Z,4.11
2023-02-24T00:34:42.003Z,4.09
2023-02-24T00:37:10.175Z,4.08
2023-02-24T00:39:41.962Z,4.07
2023-02-24T00:42:12.065Z,4.06
2023-02-24T00:44:45.662Z,4.04
2023-02-24T00:47:16.963Z,4.02
2023-02-24T00:49:45.593Z,3.98
2023-02-24T00:52:20.940Z,3.99
2023-02-24T00:54:50.260Z,4.00
2023-02-24T00:57:20.550Z,3.95
2023-02-24T00:59:51.449Z,3.94
2023-02-24T01:02:20.527Z,3.90
2023-02-24T01:04:50.121Z,3.89
2023-02-24T01:07:18.166Z,3.89
2023-02-24T01:09:46.443Z,3.86
2023-02-24T01:12:38.536Z,3.84
2023-02-24T01:15:10.214Z,3.84
2023-02-24T01:17:40.854Z,3.79
2023-02-24T01:20:16.803Z,3.75
2023-02-24T01:22:53.220Z,3.77
2023-02-24T01:25:21.882Z,3.75
2023-02-24T01:27:50.801Z,3.77
2023-02-24T01:30:18.969Z,3.80
2023-02-24T01:32:47.599Z,3.80
2023-02-24T01:35:16.633Z,3.82
2023-02-24T01:37:45.858Z,3.83
2023-02-24T01:40:20.686Z,3.84
2023-02-24T01:42:49.753Z,3.85
2023-02-24T01:45:25.181Z,3.84
2023-02-24T01:47:58.614Z,3.82
2023-02-24T01:50:27.958Z,3.82
2023-02-24T01:53:02.000Z,3.76
2023-02-24T01:55:38.037Z,3.74
2023-02-24T01:58:13.106Z,3.73
2023-02-24T02:00:46.933Z,3.75
2023-02-24T02:03:24.508Z,3.75
2023-02-24T02:05:59.049Z,3.77
2023-02-24T02:08:28.635Z,3.76
2023-02-24T02:11:02.664Z,3.76
2023-02-24T02:13:38.140Z,3.74
2023-02-24T02:16:26.113Z,3.69
2023-02-24T02:19:00.968Z,3.64
2023-02-24T02:21:41.220Z,3.61
2023-02-24T02:24:40.168Z,3.57
2023-02-24T02:27:24.567Z,3.55
2023-02-24T02:30:24.290Z,3.52
2023-02-24T02:33:02.128Z,3.53
2023-02-24T02:35:36.980Z,3.55
2023-02-24T02:38:28.016Z,3.56
2023-02-24T02:41:07.491Z,3.63
2023-02-24T02:43:46.592Z,3.67
2023-02-24T02:46:35.024Z,3.72
2023-02-24T02:49:13.366Z,3.71
2023-02-24T02:51:47.086Z,3.74
2023-02-24T02:54:32.729Z,3.83
2023-02-24T02:57:18.209Z,3.93
2023-02-24T02:59:54.680Z,4.01
2023-02-24T03:02:29.789Z,4.06
2023-02-24T03:05:05.134Z,4.10
2023-02-24T03:07:37.846Z,4.11
2023-02-24T03:10:17.821Z,4.13
2023-02-24T03:12:50.830Z,4.13
2023-02-24T03:15:22.604Z,4.15
2023-02-24T03:18:01.747Z,4.15
2023-02-24T03:20:38.138Z,4.15
2023-02-24T03:23:18.504Z,4.19
2023-02-24T03:26:07.950Z,4.20
2023-02-24T03:28:43.520Z,4.15
2023-02-24T03:31:30.749Z,4.23
2023-02-24T03:34:05.655Z,4.32
2023-02-24T03:36:34.271Z,4.36
2023-02-24T03:39:05.513Z,4.42
2023-02-24T03:41:56.404Z,4.46
2023-02-24T03:44:25.104Z,4.50
2023-02-24T03:46:56.037Z,4.50
2023-02-24T03:49:25.565Z,4.48
2023-02-24T03:52:21.725Z,4.47
2023-02-24T03:55:08.789Z,4.47
2023-02-24T03:57:59.926Z,4.51
2023-02-24T04:00:46.775Z,4.48
2023-02-24T04:03:25.872Z,4.42
2023-02-24T04:06:15.833Z,4.37
2023-02-24T04:09:02.194Z,4.33
2023-02-24T04:11:41.358Z,4.27
2023-02-24T04:14:19.466Z,4.21
2023-02-24T04:16:57.404Z,4.19
2023-02-24T04:19:29.738Z,4.14
2023-02-24T04:21:59.553Z,4.08
2023-02-24T04:24:31.086Z,4.05
2023-02-24T04:27:03.662Z,4.02
2023-02-24T04:29:38.851Z,3.99
2023-02-24T04:32:10.535Z,3.97
2023-02-24T04:34:40.423Z,3.94
2023-02-24T04:37:09.101Z,3.92
2023-02-24T04:39:38.594Z,3.90
2023-02-24T04:42:10.966Z,3.84
2023-02-24T04:44:39.063Z,3.78
2023-02-24T04:47:07.468Z,3.77
2023-02-24T04:49:35.587Z,3.75
2023-02-24T04:52:03.558Z,3.73
2023-02-24T04:54:32.950Z,3.71
2023-02-24T04:57:01.238Z,3.71
2023-02-24T04:59:29.510Z,3.73
2023-02-24T05:02:01.699Z,3.73
2023-02-24T05:04:36.229Z,3.72
2023-02-24T05:07:05.010Z,3.70
2023-02-24T05:09:33.265Z,3.70
2023-02-24T05:12:01.338Z,3.70
2023-02-24T05:14:29.282Z,3.73
2023-02-24T05:17:00.586Z,3.74
2023-02-24T05:19:47.987Z,3.82
2023-02-24T05:22:17.805Z,3.88
2023-02-24T05:24:48.059Z,3.92
2023-02-24T05:27:17.480Z,3.97
2023-02-24T05:29:45.912Z,4.02
2023-02-24T05:32:16.936Z,4.06
2023-02-24T05:34:45.326Z,4.12
2023-02-24T05:37:16.800Z,4.13
2023-02-24T05:39:44.960Z,4.17
2023-02-24T05:42:13.231Z,4.23
2023-02-24T05:44:42.017Z,4.29
2023-02-24T05:47:11.038Z,4.35
2023-02-24T05:49:39.581Z,4.42
2023-02-24T05:52:09.754Z,4.51
2023-02-24T05:54:41.268Z,4.59
2023-02-24T05:57:12.578Z,4.59
2023-02-24T05:59:42.113Z,4.64
2023-02-24T06:02:13.726Z,4.70
2023-02-24T06:04:54.274Z,4.75
2023-02-24T06:07:27.746Z,4.79
2023-02-24T06:09:58.690Z,4.83
2023-02-24T06:12:33.989Z,4.86
2023-02-24T06:15:07.902Z,4.88
2023-02-24T06:17:36.251Z,4.87
2023-02-24T06:20:15.749Z,4.70
2023-02-24T06:22:43.913Z,4.66
2023-02-24T06:25:12.220Z,4.68
2023-02-24T06:27:40.353Z,4.70
2023-02-24T06:30:10.527Z,4.74
2023-02-24T06:32:38.884Z,4.80
2023-02-24T06:35:10.923Z,4.85
2023-02-24T06:37:39.648Z,4.94
2023-02-24T06:40:18.030Z,4.98
2023-02-24T06:42:54.174Z,5.03
2023-02-24T06:45:24.458Z,5.09
2023-02-24T06:47:53.125Z,5.15
2023-02-24T06:50:21.992Z,5.22
2023-02-24T06:52:50.780Z,5.26
2023-02-24T06:55:27.742Z,5.30
2023-02-24T06:58:04.465Z,5.37
2023-02-24T07:00:37.425Z,5.42
2023-02-24T07:03:17.307Z,5.45
2023-02-24T07:05:50.812Z,5.54
2023-02-24T07:08:24.642Z,5.65
2023-02-24T07:11:00.130Z,5.86
2023-02-24T07:13:31.564Z,6.26
2023-02-24T07:16:07.508Z,6.60
2023-02-24T07:18:37.121Z,6.89
2023-02-24T07:21:05.615Z,7.25
2023-02-24T07:23:33.790Z,7.64
2023-02-24T07:26:06.917Z,8.11
2023-02-24T07:28:35.046Z,8.58
2023-02-24T07:31:08.529Z,8.86
2023-02-24T07:33:37.440Z,9.09
2023-02-24T07:36:10.641Z,9.30
2023-02-24T07:38:40.051Z,9.47
2023-02-24T07:41:13.003Z,9.58
2023-02-24T07:43:43.934Z,9.77
2023-02-24T07:46:19.277Z,9.97
2023-02-24T07:48:47.325Z,10.09
2023-02-24T07:51:19.482Z,10.13
2023-02-24T07:53:53.908Z,10.15
2023-02-24T07:56:27.193Z,10.16
2023-02-24T07:58:59.676Z,10.15
2023-02-24T08:01:39.481Z,10.06
2023-02-24T08:04:12.563Z,9.83
2023-02-24T08:06:48.032Z,9.67
2023-02-24T08:09:19.357Z,9.52
2023-02-24T08:11:54.706Z,9.41
2023-02-24T08:14:32.916Z,9.31
2023-02-24T08:17:05.513Z,9.23
2023-02-24T08:19:39.719Z,9.07
2023-02-24T08:22:19.897Z,8.91
2023-02-24T08:25:00.749Z,8.78
2023-02-24T08:27:32.184Z,8.65
2023-02-24T08:30:03.038Z,8.50
2023-02-24T08:32:43.885Z,8.48
2023-02-24T08:35:20.566Z,8.55
2023-02-24T08:37:55.495Z,8.71
2023-02-24T08:40:32.989Z,8.85
2023-02-24T08:43:01.168Z,8.89
2023-02-24T08:45:38.649Z,8.84
2023-02-24T08:48:18.363Z,8.83
2023-02-24T08:50:47.031Z,8.81
2023-02-24T08:53:19.429Z,8.78
2023-02-24T08:55:51.948Z,8.72
2023-02-24T08:58:27.268Z,8.71
2023-02-24T09:00:59.383Z,8.73
2023-02-24T09:03:29.711Z,8.65
2023-02-24T09:06:04.698Z,8.55
2023-02-24T09:08:35.135Z,8.55
2023-02-24T09:11:08.151Z,8.46
2023-02-24T09:13:51.868Z,8.39
2023-02-24T09:16:23.664Z,8.28
2023-02-24T09:19:18.420Z,8.14
2023-02-24T09:21:48.940Z,8.06
2023-02-24T09:24:27.247Z,8.04
2023-02-24T09:26:59.326Z,8.04
2023-02-24T09:29:35.305Z,7.98
2023-02-24T09:32:07.017Z,7.90
2023-02-24T09:34:37.712Z,7.85
2023-02-24T09:37:05.870Z,7.75
2023-02-24T09:39:54.732Z,7.65
2023-02-24T09:42:33.524Z,7.55
2023-02-24T09:45:12.965Z,7.37
2023-02-24T09:47:52.096Z,7.32
2023-02-24T09:50:46.913Z,7.30
2023-02-24T09:53:17.670Z,7.31
2023-02-24T09:56:16.194Z,7.35
2023-02-24T09:59:26.557Z,7.46
2023-02-24T10:02:31.395Z,7.50
2023-02-24T10:05:27.539Z,7.64
2023-02-24T10:07:57.569Z,7.82
2023-02-24T10:10:36.063Z,8.00
2023-02-24T10:13:34.152Z,8.15
2023-02-24T10:16:07.335Z,8.28
2023-02-24T10:19:01.488Z,8.24
2023-02-24T10:22:00.551Z,8.26
2023-02-24T10:24:35.884Z,8.28
2023-02-24T10:27:17.558Z,8.31
2023-02-24T10:29:55.692Z,8.30
2023-02-24T10:32:37.898Z,8.31
2023-02-24T10:35:09.636Z,8.32
2023-02-24T10:37:37.711Z,8.29
2023-02-24T10:40:10.445Z,8.29
2023-02-24T10:42:48.866Z,8.34
2023-02-24T10:45:24.763Z,8.40
2023-02-24T10:47:57.426Z,8.44
2023-02-24T10:50:30.372Z,8.50
2023-02-24T10:53:07.804Z,8.51
2023-02-24T10:55:43.154Z,8.60
2023-02-24T10:58:28.314Z,8.70
2023-02-24T11:01:07.621Z,8.74
2023-02-24T11:04:00.919Z,8.72
2023-02-24T11:06:41.320Z,8.75
2023-02-24T11:09:19.553Z,8.71
2023-02-24T11:12:07.519Z,8.64
2023-02-24T11:15:07.758Z,8.56
2023-02-24T11:17:37.880Z,8.48
2023-02-24T11:20:15.783Z,8.44
2023-02-24T11:22:48.149Z,8.56
2023-02-24T11:25:27.323Z,8.82
2023-02-24T11:27:57.093Z,9.52
2023-02-24T11:30:46.340Z,10.50
2023-02-24T11:33:42.692Z,10.96
2023-02-24T11:36:41.380Z,12.14
2023-02-24T11:39:21.519Z,14.18
2023-02-24T11:41:55.690Z,14.51
2023-02-24T11:44:34.692Z,16.12
2023-02-24T11:47:07.976Z,18.37
2023-02-24T11:50:06.672Z,19.65
2023-02-24T11:52:40.418Z,21.07
2023-02-24T11:55:23.395Z,22.15
2023-02-24T11:57:54.961Z,22.46
2023-02-24T12:00:28.066Z,21.38
2023-02-24T12:03:13.685Z,20.41
2023-02-24T12:05:49.033Z,19.86
2023-02-24T12:08:33.493Z,20.35
2023-02-24T12:11:11.730Z,20.35
2023-02-24T12:13:48.676Z,20.78
2023-02-24T12:16:25.953Z,20.82
2023-02-24T12:19:06.663Z,20.32
2023-02-24T12:21:42.201Z,19.90
2023-02-24T12:24:14.692Z,19.36
2023-02-24T12:26:53.300Z,18.59
2023-02-24T12:29:42.147Z,17.88
2023-02-24T12:32:43.019Z,17.03
2023-02-24T12:35:32.372Z,16.29
2023-02-24T12:38:03.836Z,15.70
2023-02-24T12:40:47.474Z,16.20
2023-02-24T12:43:38.982Z,16.78
2023-02-24T12:46:20.292Z,17.23
2023-02-24T12:49:13.429Z,17.08
2023-02-24T12:51:55.004Z,16.31
2023-02-24T12:54:51.361Z,15.94
2023-02-24T12:57:30.574Z,16.41
2023-02-24T13:00:07.864Z,16.26
2023-02-24T13:03:01.958Z,15.98
2023-02-24T13:05:39.336Z,15.85
2023-02-24T13:08:40.883Z,16.62
2023-02-24T13:11:30.152Z,17.51
2023-02-24T13:14:26.436Z,17.52
2023-02-24T13:17:25.396Z,18.54
2023-02-24T13:19:55.608Z,19.86
2023-02-24T13:22:30.659Z,20.64
2023-02-24T13:25:21.680Z,21.09
2023-02-24T13:28:02.333Z,21.22
2023-02-24T13:30:39.333Z,21.42
2023-02-24T13:33:24.175Z,21.34
2023-02-24T13:36:07.065Z,20.76
2023-02-24T13:38:39.053Z,20.04
2023-02-24T13:41:25.135Z,19.30
2023-02-24T13:44:24.151Z,18.50
2023-02-24T13:47:13.929Z,17.70
2023-02-24T13:50:19.760Z,17.09
2023-02-24T13:53:17.926Z,16.43
2023-02-24T13:56:11.123Z,15.79
2023-02-24T13:58:52.724Z,15.21
2023-02-24T14:01:22.680Z,14.75
2023-02-24T14:04:19.067Z,14.43
2023-02-24T14:06:52.269Z,14.02
2023-02-24T14:09:30.858Z,13.67
2023-02-24T14:12:07.399Z,13.39
2023-02-24T14:14:35.728Z,13.15
2023-02-24T14:17:03.702Z,12.95
2023-02-24T14:19:31.710Z,12.73
2023-02-24T14:22:00.354Z,12.47
2023-02-24T14:24:29.438Z,12.26
2023-02-24T14:26:59.434Z,12.09
2023-02-24T14:29:32.253Z,11.91
2023-02-24T14:32:00.802Z,11.80
2023-02-24T14:34:31.352Z,11.69
2023-02-24T14:37:02.846Z,11.59
2023-02-24T14:39:34.441Z,11.50
2023-02-24T14:42:09.811Z,11.42
2023-02-24T14:44:50.235Z,11.32
2023-02-24T14:47:21.015Z,11.19
2023-02-24T14:50:02.274Z,11.14
2023-02-24T14:52:41.822Z,11.13
2023-02-24T14:55:18.707Z,11.08
2023-02-24T14:58:04.219Z,10.96
2023-02-24T15:00:43.929Z,10.87
2023-02-24T15:03:25.129Z,10.81
2023-02-24T15:05:56.783Z,10.72
2023-02-24T15:08:31.007Z,10.64
2023-02-24T15:10:59.343Z,10.51
2023-02-24T15:13:38.818Z,10.43
2023-02-24T15:16:36.648Z,10.38
2023-02-24T15:19:05.858Z,10.35
2023-02-24T15:21:40.598Z,10.29
2023-02-24T15:24:25.355Z,10.25
2023-02-24T15:27:00.143Z,10.21
2023-02-24T15:29:31.741Z,10.17
2023-02-24T15:32:04.319Z,10.12
2023-02-24T15:34:36.638Z,10.07
2023-02-24T15:37:22.041Z,10.03
2023-02-24T15:39:54.647Z,10.00
2023-02-24T15:42:32.598Z,9.94
2023-02-24T15:45:34.714Z,9.89
2023-02-24T15:48:17.941Z,9.85
2023-02-24T15:50:45.907Z,9.81
2023-02-24T15:53:14.290Z,9.78
2023-02-24T15:55:43.692Z,9.73
2023-02-24T15:58:18.171Z,9.70
2023-02-24T16:00:46.818Z,9.68
2023-02-24T16:03:14.863Z,9.60
2023-02-24T16:05:42.949Z,9.50
2023-02-24T16:08:18.388Z,9.38
2023-02-24T16:10:47.388Z,9.25
2023-02-24T16:13:22.734Z,9.10
2023-02-24T16:15:51.572Z,8.94
2023-02-24T16:18:22.792Z,8.77
2023-02-24T16:20:55.338Z,8.67
2023-02-24T16:23:25.802Z,8.52
2023-02-24T16:25:56.925Z,8.39
2023-02-24T16:28:26.501Z,8.21
2023-02-24T16:30:54.705Z,8.02
2023-02-24T16:33:23.864Z,7.86
2023-02-24T16:35:55.352Z,7.77
2023-02-24T16:38:26.852Z,7.72
2023-02-24T16:40:55.993Z,7.70
2023-02-24T16:43:24.916Z,7.75
2023-02-24T16:45:55.707Z,7.78
2023-02-24T16:48:26.537Z,7.81
2023-02-24T16:50:54.744Z,7.86
2023-02-24T16:53:24.350Z,7.83
2023-02-24T16:55:52.844Z,7.79
2023-02-24T16:58:20.887Z,7.77
2023-02-24T17:00:52.237Z,7.76
2023-02-24T17:03:26.068Z,7.69
2023-02-24T17:05:55.351Z,7.68
2023-02-24T17:08:23.924Z,7.69
2023-02-24T17:10:52.952Z,7.76
2023-02-24T17:13:22.472Z,7.80
2023-02-24T17:15:57.004Z,7.82
2023-02-24T17:18:26.582Z,7.81
2023-02-24T17:20:55.057Z,7.84
2023-02-24T17:23:23.944Z,7.90
2023-02-24T17:25:55.026Z,7.93
2023-02-24T17:28:23.569Z,7.94
2023-02-24T17:30:52.089Z,7.98
2023-02-24T17:33:20.415Z,7.94
2023-02-24T17:35:48.487Z,7.89
2023-02-24T17:38:19.141Z,7.86
2023-02-24T17:40:47.496Z,7.87
2023-02-24T17:43:15.481Z,7.85
2023-02-24T17:45:45.487Z,7.82
2023-02-24T17:48:14.992Z,7.76
2023-02-24T17:50:45.206Z,7.73
2023-02-24T17:53:13.502Z,7.69
2023-02-24T17:55:55.835Z,7.67
2023-02-24T17:58:27.983Z,7.70
2023-02-24T18:00:56.236Z,7.73
2023-02-24T18:03:24.787Z,7.73
2023-02-24T18:06:07.550Z,7.74
2023-02-24T18:08:37.519Z,7.71
2023-02-24T18:11:07.983Z,7.72
2023-02-24T18:13:36.253Z,7.76
2023-02-24T18:16:13.133Z,7.80
2023-02-24T18:18:41.931Z,7.81
2023-02-24T18:21:10.111Z,7.82
2023-02-24T18:23:40.550Z,7.85
2023-02-24T18:26:10.946Z,7.83
2023-02-24T18:28:39.937Z,7.89
2023-02-24T18:31:20.709Z,7.95
2023-02-24T18:33:49.710Z,8.00
2023-02-24T18:36:18.654Z,8.03
2023-02-24T18:38:47.130Z,8.07
2023-02-24T18:41:18.607Z,8.09
2023-02-24T18:43:51.218Z,8.12
2023-02-24T18:46:20.364Z,8.16
2023-02-24T18:48:50.552Z,8.17
2023-02-24T18:51:22.099Z,8.16
2023-02-24T18:53:52.574Z,8.17
2023-02-24T18:56:23.599Z,8.15
2023-02-24T18:58:55.701Z,8.11
2023-02-24T19:01:28.357Z,8.09
2023-02-24T19:03:57.384Z,8.08
2023-02-24T19:06:28.576Z,8.07
2023-02-24T19:08:59.784Z,8.06
2023-02-24T19:11:28.456Z,8.04
2023-02-24T19:13:58.394Z,8.04
2023-02-24T19:16:27.392Z,8.05
2023-02-24T19:18:57.307Z,8.06
2023-02-24T19:21:26.861Z,8.04
2023-02-24T19:23:55.073Z,8.02
2023-02-24T19:26:26.606Z,8.03
2023-02-24T19:28:55.217Z,8.03
2023-02-24T19:31:26.530Z,8.04
2023-02-24T19:33:56.283Z,8.03
2023-02-24T19:36:24.994Z,8.00
2023-02-24T19:38:54.161Z,7.94
2023-02-24T19:41:22.737Z,7.88
2023-02-24T19:43:50.782Z,7.82
2023-02-24T19:46:19.375Z,7.79
2023-02-24T19:48:48.583Z,7.71
2023-02-24T19:51:19.945Z,7.66
2023-02-24T19:53:52.732Z,7.63
2023-02-24T19:56:25.990Z,7.61
2023-02-24T19:58:56.457Z,7.59
2023-02-24T20:01:26.120Z,7.59
2023-02-24T20:03:56.736Z,7.57
2023-02-24T20:06:37.228Z,7.55
2023-02-24T20:09:08.268Z,7.53
2023-02-24T20:11:38.635Z,7.50
2023-02-24T20:14:08.696Z,7.47
2023-02-24T20:16:38.697Z,7.45
2023-02-24T20:19:09.589Z,7.44
2023-02-24T20:21:41.124Z,7.45
2023-02-24T20:24:13.790Z,7.42
2023-02-24T20:26:47.174Z,7.41
2023-02-24T20:29:18.106Z,7.40
2023-02-24T20:31:47.116Z,7.37
2023-02-24T20:34:16.962Z,7.35
2023-02-24T20:36:45.674Z,7.34
2023-02-24T20:39:14.512Z,7.34
2023-02-24T20:41:43.118Z,7.33
2023-02-24T20:44:11.812Z,7.23
2023-02-24T20:46:39.994Z,7.19
2023-02-24T20:49:11.064Z,7.20
2023-02-24T20:51:39.101Z,7.24
2023-02-24T20:54:09.622Z,7.28
2023-02-24T20:56:39.861Z,7.30
2023-02-24T20:59:20.000Z,7.35
2023-02-24T21:01:49.082Z,7.43
2023-02-24T21:04:20.277Z,7.43
2023-02-24T21:06:49.008Z,7.49
2023-02-24T21:09:17.068Z,7.55
2023-02-24T21:11:45.107Z,7.59
2023-02-24T21:14:17.667Z,7.58
2023-02-24T21:16:49.822Z,7.59
2023-02-24T21:19:20.466Z,7.61
2023-02-24T21:21:48.521Z,7.61
2023-02-24T21:24:16.766Z,7.61
2023-02-24T21:26:44.880Z,7.61
2023-02-24T21:29:12.951Z,7.56
2023-02-24T21:31:41.553Z,7.55
2023-02-24T21:34:12.372Z,7.55
2023-02-24T21:36:40.312Z,7.56
2023-02-24T21:39:08.781Z,7.55
2023-02-24T21:41:37.001Z,7.53
2023-02-24T21:44:05.356Z,7.50
2023-02-24T21:46:33.611Z,7.51
2023-02-24T21:49:02.022Z,7.46
2023-02-24T21:51:30.203Z,7.46
2023-02-24T21:53:58.575Z,7.44
2023-02-24T21:56:29.480Z,7.47
2023-02-24T21:59:00.642Z,7.49
2023-02-24T22:01:38.337Z,7.51
2023-02-24T22:04:09.675Z,7.57
2023-02-24T22:06:39.108Z,7.60
2023-02-24T22:09:08.713Z,7.63
2023-02-24T22:11:39.440Z,7.63
2023-02-24T22:14:09.608Z,7.60
2023-02-24T22:16:37.727Z,7.57
2023-02-24T22:19:06.446Z,7.56
2023-02-24T22:21:34.708Z,7.55
2023-02-24T22:24:03.919Z,7.57
2023-02-24T22:26:32.257Z,7.58
2023-02-24T22:29:01.628Z,7.59
2023-02-24T22:31:32.227Z,7.64
2023-02-24T22:34:01.018Z,7.69
2023-02-24T22:36:34.527Z,7.72
2023-02-24T22:39:03.086Z,7.75
2023-02-24T22:41:34.224Z,7.78
2023-02-24T22:44:04.833Z,7.80
2023-02-24T22:46:35.839Z,7.85
2023-02-24T22:49:05.154Z,7.91
2023-02-24T22:51:33.273Z,7.96
2023-02-24T22:54:01.671Z,7.98
2023-02-24T22:56:30.438Z,7.93
2023-02-24T22:58:59.329Z,7.91
2023-02-24T23:01:31.207Z,7.86
2023-02-24T23:04:01.370Z,7.87
2023-02-24T23:06:30.863Z,7.88
2023-02-24T23:09:00.292Z,7.91
2023-02-24T23:11:34.274Z,7.95
2023-02-24T23:14:06.195Z,8.02
2023-02-24T23:16:35.362Z,8.02
2023-02-24T23:19:19.644Z,7.99
2023-02-24T23:21:50.212Z,7.92
2023-02-24T23:24:20.479Z,7.89
2023-02-24T23:26:54.231Z,7.85
2023-02-24T23:29:24.116Z,7.83
2023-02-24T23:31:53.014Z,7.84
2023-02-24T23:34:21.284Z,7.82
2023-02-24T23:36:49.662Z,7.78
2023-02-24T23:39:23.219Z,7.72
2023-02-24T23:41:56.886Z,7.71
2023-02-24T23:44:25.885Z,7.69
2023-02-24T23:46:55.080Z,7.63
2023-02-24T23:49:23.425Z,7.63
2023-02-24T23:51:52.542Z,7.64
2023-02-24T23:54:20.608Z,7.62
2023-02-24T23:56:49.094Z,7.64
2023-02-24T23:59:17.376Z,7.63
